sensor_id;sensor_type;location;lat;lon;timestamp;P1;durP1;ratioP1;P2;durP2;ratioP2
20040;SDS011;10181;48.072;9.884;2023-04-23T00:02:08;5.13;;;4.93;;
20040;SDS011;10181;48.072;9.884;2023-04-23T00:04:37;4.97;;;4.73;;
20040;SDS011;10181;48.072;9.884;2023-04-23T00:07:04;5.53;;;5.33;;
20040;SDS011;10181;48.072;9.884;2023-04-23T00:09:30;5.60;;;5.40;;
20040;SDS011;10181;48.072;9.884;2023-04-23T00:11:56;5.47;;;5.20;;
20040;SDS011;10181;48.072;9.884;2023-04-23T00:14:23;5.03;;;4.83;;
20040;SDS011;10181;48.072;9.884;2023-04-23T00:16:49;5.03;;;4.73;;
20040;SDS011;10181;48.072;9.884;2023-04-23T00:19:16;5.07;;;4.87;;
20040;SDS011;10181;48.072;9.884;2023-04-23T00:21:41;5.57;;;5.37;;
20040;SDS011;10181;48.072;9.884;2023-04-23T00:24:07;5.97;;;5.67;;
20040;SDS011;10181;48.072;9.884;2023-04-23T00:26:32;5.67;;;5.47;;
20040;SDS011;10181;48.072;9.884;2023-04-23T00:28:58;5.33;;;5.10;;
20040;SDS011;10181;48.072;9.884;2023-04-23T00:31:23;4.70;;;4.53;;
20040;SDS011;10181;48.072;9.884;2023-04-23T00:33:51;4.80;;;4.60;;
20040;SDS011;10181;48.072;9.884;2023-04-23T00:36:17;5.43;;;5.13;;
20040;SDS011;10181;48.072;9.884;2023-04-23T00:38:42;5.20;;;5.00;;
20040;SDS011;10181;48.072;9.884;2023-04-23T00:41:08;5.10;;;4.90;;
20040;SDS011;10181;48.072;9.884;2023-04-23T00:43:34;5.23;;;5.03;;
20040;SDS011;10181;48.072;9.884;2023-04-23T00:46:01;4.97;;;4.77;;
20040;SDS011;10181;48.072;9.884;2023-04-23T00:48:27;6.07;;;5.77;;
20040;SDS011;10181;48.072;9.884;2023-04-23T00:51:02;8.17;;;7.87;;
20040;SDS011;10181;48.072;9.884;2023-04-23T00:53:28;9.17;;;8.83;;
20040;SDS011;10181;48.072;9.884;2023-04-23T00:55:54;9.07;;;8.70;;
20040;SDS011;10181;48.072;9.884;2023-04-23T00:58:21;8.73;;;8.43;;
20040;SDS011;10181;48.072;9.884;2023-04-23T01:00:47;12.50;;;12.10;;
20040;SDS011;10181;48.072;9.884;2023-04-23T01:03:13;11.70;;;11.30;;
20040;SDS011;10181;48.072;9.884;2023-04-23T01:05:42;12.90;;;12.40;;
20040;SDS011;10181;48.072;9.884;2023-04-23T01:08:09;13.80;;;13.20;;
20040;SDS011;10181;48.072;9.884;2023-04-23T01:10:38;15.90;;;15.30;;
20040;SDS011;10181;48.072;9.884;2023-04-23T01:13:05;18.17;;;17.47;;
20040;SDS011;10181;48.072;9.884;2023-04-23T01:15:30;18.77;;;18.17;;
20040;SDS011;10181;48.072;9.884;2023-04-23T01:17:56;22.87;;;21.97;;
20040;SDS011;10181;48.072;9.884;2023-04-23T01:20:22;23.73;;;22.83;;
20040;SDS011;10181;48.072;9.884;2023-04-23T01:22:48;25.90;;;24.87;;
20040;SDS011;10181;48.072;9.884;2023-04-23T01:25:15;24.53;;;23.53;;
20040;SDS011;10181;48.072;9.884;2023-04-23T01:27:41;19.57;;;18.87;;
20040;SDS011;10181;48.072;9.884;2023-04-23T01:30:07;20.57;;;19.77;;
20040;SDS011;10181;48.072;9.884;2023-04-23T01:32:33;18.30;;;17.33;;
20040;SDS011;10181;48.072;9.884;2023-04-23T01:34:59;17.03;;;16.33;;
20040;SDS011;10181;48.072;9.884;2023-04-23T01:37:26;24.97;;;23.80;;
20040;SDS011;10181;48.072;9.884;2023-04-23T01:39:53;23.97;;;22.97;;
20040;SDS011;10181;48.072;9.884;2023-04-23T01:42:19;39.17;;;37.50;;
20040;SDS011;10181;48.072;9.884;2023-04-23T01:44:44;40.13;;;38.50;;
20040;SDS011;10181;48.072;9.884;2023-04-23T01:47:10;40.83;;;38.90;;
20040;SDS011;10181;48.072;9.884;2023-04-23T01:49:36;37.40;;;35.73;;
20040;SDS011;10181;48.072;9.884;2023-04-23T01:52:02;34.40;;;33.00;;
20040;SDS011;10181;48.072;9.884;2023-04-23T01:54:27;36.10;;;34.43;;
20040;SDS011;10181;48.072;9.884;2023-04-23T01:56:53;32.40;;;31.00;;
20040;SDS011;10181;48.072;9.884;2023-04-23T01:59:20;31.33;;;30.03;;
20040;SDS011;10181;48.072;9.884;2023-04-23T02:01:47;27.47;;;26.20;;
20040;SDS011;10181;48.072;9.884;2023-04-23T02:04:13;19.67;;;18.77;;
20040;SDS011;10181;48.072;9.884;2023-04-23T02:06:40;16.40;;;15.50;;
20040;SDS011;10181;48.072;9.884;2023-04-23T02:09:08;12.87;;;12.33;;
20040;SDS011;10181;48.072;9.884;2023-04-23T02:11:33;11.43;;;10.73;;
20040;SDS011;10181;48.072;9.884;2023-04-23T02:13:59;9.33;;;8.67;;
20040;SDS011;10181;48.072;9.884;2023-04-23T02:16:26;10.63;;;9.93;;
20040;SDS011;10181;48.072;9.884;2023-04-23T02:18:52;11.07;;;10.43;;
20040;SDS011;10181;48.072;9.884;2023-04-23T02:21:19;15.37;;;14.57;;
20040;SDS011;10181;48.072;9.884;2023-04-23T02:23:45;17.83;;;16.93;;
20040;SDS011;10181;48.072;9.884;2023-04-23T02:26:11;29.60;;;28.20;;
20040;SDS011;10181;48.072;9.884;2023-04-23T02:28:36;39.70;;;37.93;;
20040;SDS011;10181;48.072;9.884;2023-04-23T02:31:02;35.00;;;33.33;;
20040;SDS011;10181;48.072;9.884;2023-04-23T02:33:28;14.03;;;13.20;;
20040;SDS011;10181;48.072;9.884;2023-04-23T02:35:54;10.23;;;9.70;;
20040;SDS011;10181;48.072;9.884;2023-04-23T02:38:20;9.80;;;9.10;;
20040;SDS011;10181;48.072;9.884;2023-04-23T02:40:45;7.77;;;7.27;;
20040;SDS011;10181;48.072;9.884;2023-04-23T02:43:11;7.20;;;6.80;;
20040;SDS011;10181;48.072;9.884;2023-04-23T02:45:36;11.67;;;10.97;;
20040;SDS011;10181;48.072;9.884;2023-04-23T02:48:02;19.97;;;18.87;;
20040;SDS011;10181;48.072;9.884;2023-04-23T02:50:28;25.97;;;24.77;;
20040;SDS011;10181;48.072;9.884;2023-04-23T02:52:54;26.60;;;25.30;;
20040;SDS011;10181;48.072;9.884;2023-04-23T02:55:20;27.83;;;26.47;;
20040;SDS011;10181;48.072;9.884;2023-04-23T02:57:46;25.37;;;24.00;;
20040;SDS011;10181;48.072;9.884;2023-04-23T03:00:11;16.17;;;15.20;;
20040;SDS011;10181;48.072;9.884;2023-04-23T03:02:39;8.23;;;7.63;;
20040;SDS011;10181;48.072;9.884;2023-04-23T03:05:04;8.23;;;7.63;;
20040;SDS011;10181;48.072;9.884;2023-04-23T03:07:31;16.30;;;15.33;;
20040;SDS011;10181;48.072;9.884;2023-04-23T03:09:57;19.33;;;18.23;;
20040;SDS011;10181;48.072;9.884;2023-04-23T03:12:22;18.40;;;17.40;;
20040;SDS011;10181;48.072;9.884;2023-04-23T03:14:48;13.23;;;12.43;;
20040;SDS011;10181;48.072;9.884;2023-04-23T03:17:13;10.93;;;10.33;;
20040;SDS011;10181;48.072;9.884;2023-04-23T03:19:39;11.13;;;10.33;;
20040;SDS011;10181;48.072;9.884;2023-04-23T03:22:05;10.73;;;9.97;;
20040;SDS011;10181;48.072;9.884;2023-04-23T03:24:33;10.50;;;9.90;;
20040;SDS011;10181;48.072;9.884;2023-04-23T03:26:59;10.20;;;9.20;;
20040;SDS011;10181;48.072;9.884;2023-04-23T03:29:25;9.20;;;8.50;;
20040;SDS011;10181;48.072;9.884;2023-04-23T03:31:50;9.20;;;7.67;;
20040;SDS011;10181;48.072;9.884;2023-04-23T03:34:16;8.00;;;7.40;;
20040;SDS011;10181;48.072;9.884;2023-04-23T03:36:42;7.47;;;6.77;;
20040;SDS011;10181;48.072;9.884;2023-04-23T03:39:08;6.63;;;6.10;;
20040;SDS011;10181;48.072;9.884;2023-04-23T03:41:34;6.80;;;6.10;;
20040;SDS011;10181;48.072;9.884;2023-04-23T03:44:00;6.50;;;6.00;;
20040;SDS011;10181;48.072;9.884;2023-04-23T03:46:25;9.40;;;6.70;;
20040;SDS011;10181;48.072;9.884;2023-04-23T03:48:51;6.80;;;6.07;;
20040;SDS011;10181;48.072;9.884;2023-04-23T03:51:17;6.30;;;5.73;;
20040;SDS011;10181;48.072;9.884;2023-04-23T03:53:43;7.33;;;6.60;;
20040;SDS011;10181;48.072;9.884;2023-04-23T03:56:10;5.83;;;5.37;;
20040;SDS011;10181;48.072;9.884;2023-04-23T03:58:35;7.03;;;6.43;;
20040;SDS011;10181;48.072;9.884;2023-04-23T04:01:01;6.47;;;5.83;;
20040;SDS011;10181;48.072;9.884;2023-04-23T04:03:26;6.90;;;6.27;;
20040;SDS011;10181;48.072;9.884;2023-04-23T04:05:52;6.97;;;6.27;;
20040;SDS011;10181;48.072;9.884;2023-04-23T04:08:18;8.13;;;6.33;;
20040;SDS011;10181;48.072;9.884;2023-04-23T04:10:44;6.30;;;5.80;;
20040;SDS011;10181;48.072;9.884;2023-04-23T04:13:10;6.33;;;5.70;;
20040;SDS011;10181;48.072;9.884;2023-04-23T04:15:36;6.47;;;5.70;;
20040;SDS011;10181;48.072;9.884;2023-04-23T04:18:01;6.47;;;5.83;;
20040;SDS011;10181;48.072;9.884;2023-04-23T04:20:27;7.13;;;6.27;;
20040;SDS011;10181;48.072;9.884;2023-04-23T04:22:53;6.57;;;6.03;;
20040;SDS011;10181;48.072;9.884;2023-04-23T04:25:19;7.47;;;6.83;;
20040;SDS011;10181;48.072;9.884;2023-04-23T04:27:46;7.93;;;7.13;;
20040;SDS011;10181;48.072;9.884;2023-04-23T04:30:12;7.83;;;7.07;;
20040;SDS011;10181;48.072;9.884;2023-04-23T04:32:38;8.87;;;8.07;;
20040;SDS011;10181;48.072;9.884;2023-04-23T04:35:04;9.17;;;8.13;;
20040;SDS011;10181;48.072;9.884;2023-04-23T04:37:32;9.60;;;8.70;;
20040;SDS011;10181;48.072;9.884;2023-04-23T04:39:59;10.50;;;9.57;;
20040;SDS011;10181;48.072;9.884;2023-04-23T04:42:25;13.17;;;10.10;;
20040;SDS011;10181;48.072;9.884;2023-04-23T04:44:51;10.70;;;9.60;;
20040;SDS011;10181;48.072;9.884;2023-04-23T04:47:17;10.17;;;9.27;;
20040;SDS011;10181;48.072;9.884;2023-04-23T04:49:43;9.87;;;8.97;;
20040;SDS011;10181;48.072;9.884;2023-04-23T04:52:09;11.90;;;9.23;;
20040;SDS011;10181;48.072;9.884;2023-04-23T04:54:35;9.83;;;8.83;;
20040;SDS011;10181;48.072;9.884;2023-04-23T04:57:01;8.93;;;8.20;;
20040;SDS011;10181;48.072;9.884;2023-04-23T04:59:26;9.00;;;8.17;;
20040;SDS011;10181;48.072;9.884;2023-04-23T05:01:52;10.30;;;8.77;;
20040;SDS011;10181;48.072;9.884;2023-04-23T05:04:18;10.57;;;8.30;;
20040;SDS011;10181;48.072;9.884;2023-04-23T05:06:44;9.37;;;8.47;;
20040;SDS011;10181;48.072;9.884;2023-04-23T05:09:10;9.60;;;8.70;;
20040;SDS011;10181;48.072;9.884;2023-04-23T05:11:35;9.90;;;9.00;;
20040;SDS011;10181;48.072;9.884;2023-04-23T05:14:01;9.07;;;8.17;;
20040;SDS011;10181;48.072;9.884;2023-04-23T05:16:28;11.80;;;9.87;;
20040;SDS011;10181;48.072;9.884;2023-04-23T05:18:54;9.27;;;8.37;;
20040;SDS011;10181;48.072;9.884;2023-04-23T05:21:20;10.90;;;9.90;;
20040;SDS011;10181;48.072;9.884;2023-04-23T05:23:46;9.67;;;8.77;;
20040;SDS011;10181;48.072;9.884;2023-04-23T05:26:12;9.30;;;8.50;;
20040;SDS011;10181;48.072;9.884;2023-04-23T05:28:38;10.23;;;9.33;;
20040;SDS011;10181;48.072;9.884;2023-04-23T05:31:03;8.73;;;8.03;;
20040;SDS011;10181;48.072;9.884;2023-04-23T05:33:29;9.50;;;8.70;;
20040;SDS011;10181;48.072;9.884;2023-04-23T05:35:56;9.80;;;9.07;;
20040;SDS011;10181;48.072;9.884;2023-04-23T05:38:22;9.03;;;8.23;;
20040;SDS011;10181;48.072;9.884;2023-04-23T05:40:47;9.53;;;8.77;;
20040;SDS011;10181;48.072;9.884;2023-04-23T05:43:13;10.70;;;9.73;;
20040;SDS011;10181;48.072;9.884;2023-04-23T05:45:38;7.93;;;7.23;;
20040;SDS011;10181;48.072;9.884;2023-04-23T05:48:04;8.67;;;7.80;;
20040;SDS011;10181;48.072;9.884;2023-04-23T05:50:30;8.67;;;7.97;;
20040;SDS011;10181;48.072;9.884;2023-04-23T05:52:56;9.30;;;8.20;;
20040;SDS011;10181;48.072;9.884;2023-04-23T05:55:21;8.30;;;7.13;;
20040;SDS011;10181;48.072;9.884;2023-04-23T05:57:48;9.43;;;8.53;;
20040;SDS011;10181;48.072;9.884;2023-04-23T06:00:13;8.37;;;7.70;;
20040;SDS011;10181;48.072;9.884;2023-04-23T06:02:39;8.03;;;7.53;;
20040;SDS011;10181;48.072;9.884;2023-04-23T06:05:05;8.87;;;8.27;;
20040;SDS011;10181;48.072;9.884;2023-04-23T06:07:32;9.40;;;8.60;;
20040;SDS011;10181;48.072;9.884;2023-04-23T06:09:58;9.27;;;8.57;;
20040;SDS011;10181;48.072;9.884;2023-04-23T06:12:24;9.33;;;8.73;;
20040;SDS011;10181;48.072;9.884;2023-04-23T06:14:51;9.90;;;9.20;;
20040;SDS011;10181;48.072;9.884;2023-04-23T06:17:17;9.20;;;8.70;;
20040;SDS011;10181;48.072;9.884;2023-04-23T06:19:42;9.10;;;8.50;;
20040;SDS011;10181;48.072;9.884;2023-04-23T06:22:08;8.10;;;7.50;;
20040;SDS011;10181;48.072;9.884;2023-04-23T06:24:34;6.23;;;5.73;;
20040;SDS011;10181;48.072;9.884;2023-04-23T06:26:59;5.53;;;5.13;;
20040;SDS011;10181;48.072;9.884;2023-04-23T06:29:26;6.27;;;5.87;;
20040;SDS011;10181;48.072;9.884;2023-04-23T06:31:55;9.83;;;9.33;;
20040;SDS011;10181;48.072;9.884;2023-04-23T06:34:22;10.23;;;9.73;;
20040;SDS011;10181;48.072;9.884;2023-04-23T06:36:49;11.50;;;10.90;;
20040;SDS011;10181;48.072;9.884;2023-04-23T06:39:15;9.07;;;8.57;;
20040;SDS011;10181;48.072;9.884;2023-04-23T06:41:40;10.40;;;9.70;;
20040;SDS011;10181;48.072;9.884;2023-04-23T06:44:06;9.77;;;9.07;;
20040;SDS011;10181;48.072;9.884;2023-04-23T06:46:31;9.17;;;8.57;;
20040;SDS011;10181;48.072;9.884;2023-04-23T06:48:57;8.17;;;7.43;;
20040;SDS011;10181;48.072;9.884;2023-04-23T06:51:24;9.67;;;8.87;;
20040;SDS011;10181;48.072;9.884;2023-04-23T06:53:51;10.93;;;9.77;;
20040;SDS011;10181;48.072;9.884;2023-04-23T06:56:17;8.97;;;7.07;;
20040;SDS011;10181;48.072;9.884;2023-04-23T06:58:42;20.13;;;12.07;;
20040;SDS011;10181;48.072;9.884;2023-04-23T07:01:08;10.67;;;7.80;;
20040;SDS011;10181;48.072;9.884;2023-04-23T07:03:35;12.73;;;8.77;;
20040;SDS011;10181;48.072;9.884;2023-04-23T07:06:01;11.87;;;9.17;;
20040;SDS011;10181;48.072;9.884;2023-04-23T07:08:27;9.53;;;7.33;;
20040;SDS011;10181;48.072;9.884;2023-04-23T07:10:52;4.77;;;4.43;;
20040;SDS011;10181;48.072;9.884;2023-04-23T07:13:18;4.73;;;4.33;;
20040;SDS011;10181;48.072;9.884;2023-04-23T07:15:44;5.00;;;4.60;;
20040;SDS011;10181;48.072;9.884;2023-04-23T07:18:10;4.47;;;4.10;;
20040;SDS011;10181;48.072;9.884;2023-04-23T07:20:36;5.27;;;4.50;;
20040;SDS011;10181;48.072;9.884;2023-04-23T07:23:01;4.57;;;4.20;;
20040;SDS011;10181;48.072;9.884;2023-04-23T07:25:28;4.20;;;3.97;;
20040;SDS011;10181;48.072;9.884;2023-04-23T07:27:54;6.33;;;5.93;;
20040;SDS011;10181;48.072;9.884;2023-04-23T07:30:19;7.27;;;7.07;;
20040;SDS011;10181;48.072;9.884;2023-04-23T07:32:47;15.27;;;14.77;;
20040;SDS011;10181;48.072;9.884;2023-04-23T07:35:13;19.83;;;19.13;;
20040;SDS011;10181;48.072;9.884;2023-04-23T07:37:38;23.03;;;22.13;;
20040;SDS011;10181;48.072;9.884;2023-04-23T07:40:04;27.90;;;26.90;;
20040;SDS011;10181;48.072;9.884;2023-04-23T07:42:31;31.57;;;30.17;;
20040;SDS011;10181;48.072;9.884;2023-04-23T07:44:57;11.20;;;10.90;;
20040;SDS011;10181;48.072;9.884;2023-04-23T07:47:23;7.43;;;7.10;;
20040;SDS011;10181;48.072;9.884;2023-04-23T07:49:48;5.27;;;5.07;;
20040;SDS011;10181;48.072;9.884;2023-04-23T07:52:15;3.77;;;3.57;;
20040;SDS011;10181;48.072;9.884;2023-04-23T07:54:41;3.53;;;3.33;;
20040;SDS011;10181;48.072;9.884;2023-04-23T07:57:07;2.53;;;2.43;;
20040;SDS011;10181;48.072;9.884;2023-04-23T07:59:32;3.43;;;3.23;;
20040;SDS011;10181;48.072;9.884;2023-04-23T08:01:58;6.00;;;5.70;;
20040;SDS011;10181;48.072;9.884;2023-04-23T08:04:23;8.50;;;8.20;;
20040;SDS011;10181;48.072;9.884;2023-04-23T08:06:49;26.60;;;25.50;;
20040;SDS011;10181;48.072;9.884;2023-04-23T08:09:15;30.50;;;29.40;;
20040;SDS011;10181;48.072;9.884;2023-04-23T08:11:41;38.40;;;36.80;;
20040;SDS011;10181;48.072;9.884;2023-04-23T08:14:06;48.07;;;46.07;;
20040;SDS011;10181;48.072;9.884;2023-04-23T08:16:32;48.23;;;46.43;;
20040;SDS011;10181;48.072;9.884;2023-04-23T08:18:58;41.70;;;40.10;;
20040;SDS011;10181;48.072;9.884;2023-04-23T08:21:24;24.03;;;23.20;;
20040;SDS011;10181;48.072;9.884;2023-04-23T08:23:50;14.00;;;13.50;;
20040;SDS011;10181;48.072;9.884;2023-04-23T08:26:16;20.60;;;19.90;;
20040;SDS011;10181;48.072;9.884;2023-04-23T08:28:42;18.50;;;17.90;;
20040;SDS011;10181;48.072;9.884;2023-04-23T08:31:08;12.70;;;12.30;;
20040;SDS011;10181;48.072;9.884;2023-04-23T08:33:33;10.27;;;9.97;;
20040;SDS011;10181;48.072;9.884;2023-04-23T08:35:59;11.83;;;11.53;;
20040;SDS011;10181;48.072;9.884;2023-04-23T08:38:25;6.77;;;6.57;;
20040;SDS011;10181;48.072;9.884;2023-04-23T08:40:52;6.03;;;5.83;;
20040;SDS011;10181;48.072;9.884;2023-04-23T08:43:24;4.40;;;4.10;;
20040;SDS011;10181;48.072;9.884;2023-04-23T08:46:17;4.63;;;4.53;;
20040;SDS011;10181;48.072;9.884;2023-04-23T08:48:43;4.30;;;4.20;;
20040;SDS011;10181;48.072;9.884;2023-04-23T08:51:12;3.57;;;3.47;;
20040;SDS011;10181;48.072;9.884;2023-04-23T08:53:42;3.93;;;3.73;;
20040;SDS011;10181;48.072;9.884;2023-04-23T08:56:09;2.97;;;2.73;;
20040;SDS011;10181;48.072;9.884;2023-04-23T08:58:37;1.60;;;1.60;;
20040;SDS011;10181;48.072;9.884;2023-04-23T09:01:03;1.17;;;1.17;;
20040;SDS011;10181;48.072;9.884;2023-04-23T09:03:29;1.30;;;1.30;;
20040;SDS011;10181;48.072;9.884;2023-04-23T09:05:55;1.20;;;1.20;;
20040;SDS011;10181;48.072;9.884;2023-04-23T09:08:21;1.43;;;1.40;;
20040;SDS011;10181;48.072;9.884;2023-04-23T09:10:47;1.20;;;1.20;;
20040;SDS011;10181;48.072;9.884;2023-04-23T09:13:14;1.83;;;1.83;;
20040;SDS011;10181;48.072;9.884;2023-04-23T09:15:41;2.27;;;2.27;;
20040;SDS011;10181;48.072;9.884;2023-04-23T09:18:09;1.30;;;1.30;;
20040;SDS011;10181;48.072;9.884;2023-04-23T09:20:35;2.43;;;2.43;;
20040;SDS011;10181;48.072;9.884;2023-04-23T09:23:05;2.90;;;2.90;;
20040;SDS011;10181;48.072;9.884;2023-04-23T09:25:32;3.00;;;3.00;;
20040;SDS011;10181;48.072;9.884;2023-04-23T09:27:58;1.60;;;1.60;;
20040;SDS011;10181;48.072;9.884;2023-04-23T09:30:25;2.80;;;2.80;;
20040;SDS011;10181;48.072;9.884;2023-04-23T09:32:51;4.20;;;4.00;;
20040;SDS011;10181;48.072;9.884;2023-04-23T09:35:17;2.80;;;2.70;;
20040;SDS011;10181;48.072;9.884;2023-04-23T09:37:44;2.40;;;2.30;;
20040;SDS011;10181;48.072;9.884;2023-04-23T09:40:23;3.00;;;2.90;;
20040;SDS011;10181;48.072;9.884;2023-04-23T09:42:51;3.00;;;2.90;;
20040;SDS011;10181;48.072;9.884;2023-04-23T09:45:18;4.17;;;3.97;;
20040;SDS011;10181;48.072;9.884;2023-04-23T09:47:52;3.80;;;3.70;;
20040;SDS011;10181;48.072;9.884;2023-04-23T09:50:19;14.33;;;13.90;;
20040;SDS011;10181;48.072;9.884;2023-04-23T09:53:03;16.80;;;16.20;;
20040;SDS011;10181;48.072;9.884;2023-04-23T09:55:34;9.20;;;8.90;;
20040;SDS011;10181;48.072;9.884;2023-04-23T09:58:04;11.97;;;11.57;;
20040;SDS011;10181;48.072;9.884;2023-04-23T10:00:31;11.80;;;11.50;;
20040;SDS011;10181;48.072;9.884;2023-04-23T10:03:01;3.93;;;3.83;;
20040;SDS011;10181;48.072;9.884;2023-04-23T10:05:27;2.70;;;2.60;;
20040;SDS011;10181;48.072;9.884;2023-04-23T10:07:54;2.23;;;2.13;;
20040;SDS011;10181;48.072;9.884;2023-04-23T10:10:21;2.60;;;2.57;;
20040;SDS011;10181;48.072;9.884;2023-04-23T10:12:47;2.40;;;2.30;;
20040;SDS011;10181;48.072;9.884;2023-04-23T10:15:15;2.63;;;2.43;;
20040;SDS011;10181;48.072;9.884;2023-04-23T10:17:41;2.50;;;2.40;;
20040;SDS011;10181;48.072;9.884;2023-04-23T10:20:07;2.73;;;2.63;;
20040;SDS011;10181;48.072;9.884;2023-04-23T10:22:34;3.93;;;3.83;;
20040;SDS011;10181;48.072;9.884;2023-04-23T10:25:03;6.03;;;5.83;;
20040;SDS011;10181;48.072;9.884;2023-04-23T10:27:32;6.27;;;6.07;;
20040;SDS011;10181;48.072;9.884;2023-04-23T10:30:06;5.30;;;5.20;;
20040;SDS011;10181;48.072;9.884;2023-04-23T10:32:33;6.80;;;6.60;;
20040;SDS011;10181;48.072;9.884;2023-04-23T10:34:59;10.00;;;9.50;;
20040;SDS011;10181;48.072;9.884;2023-04-23T10:37:25;8.07;;;7.87;;
20040;SDS011;10181;48.072;9.884;2023-04-23T10:39:53;8.93;;;8.63;;
20040;SDS011;10181;48.072;9.884;2023-04-23T10:42:20;8.73;;;8.43;;
20040;SDS011;10181;48.072;9.884;2023-04-23T10:44:47;6.13;;;5.93;;
20040;SDS011;10181;48.072;9.884;2023-04-23T10:47:13;20.00;;;19.33;;
20040;SDS011;10181;48.072;9.884;2023-04-23T10:49:40;14.20;;;13.60;;
20040;SDS011;10181;48.072;9.884;2023-04-23T10:52:07;12.93;;;12.33;;
20040;SDS011;10181;48.072;9.884;2023-04-23T10:54:34;8.93;;;8.73;;
20040;SDS011;10181;48.072;9.884;2023-04-23T10:57:01;13.83;;;13.43;;
20040;SDS011;10181;48.072;9.884;2023-04-23T10:59:28;13.47;;;13.07;;
20040;SDS011;10181;48.072;9.884;2023-04-23T11:01:56;30.83;;;29.73;;
20040;SDS011;10181;48.072;9.884;2023-04-23T11:04:27;28.23;;;27.23;;
20040;SDS011;10181;48.072;9.884;2023-04-23T11:07:03;28.37;;;27.37;;
20040;SDS011;10181;48.072;9.884;2023-04-23T11:12:12;28.13;;;27.07;;
20040;SDS011;10181;48.072;9.884;2023-04-23T11:14:55;68.80;;;66.00;;
20040;SDS011;10181;48.072;9.884;2023-04-23T11:22:44;61.43;;;59.03;;
20040;SDS011;10181;48.072;9.884;2023-04-23T11:27:43;18.83;;;18.23;;
20040;SDS011;10181;48.072;9.884;2023-04-23T11:30:11;20.87;;;20.17;;
20040;SDS011;10181;48.072;9.884;2023-04-23T11:32:39;10.80;;;10.30;;
20040;SDS011;10181;48.072;9.884;2023-04-23T11:35:09;10.27;;;9.63;;
20040;SDS011;10181;48.072;9.884;2023-04-23T11:37:37;8.57;;;8.33;;
20040;SDS011;10181;48.072;9.884;2023-04-23T11:40:08;9.80;;;9.50;;
20040;SDS011;10181;48.072;9.884;2023-04-23T11:45:15;5.20;;;4.90;;
20040;SDS011;10181;48.072;9.884;2023-04-23T11:47:42;7.77;;;7.57;;
20040;SDS011;10181;48.072;9.884;2023-04-23T11:50:08;8.50;;;8.20;;
20040;SDS011;10181;48.072;9.884;2023-04-23T11:52:34;6.03;;;5.83;;
20040;SDS011;10181;48.072;9.884;2023-04-23T11:55:06;6.37;;;6.17;;
20040;SDS011;10181;48.072;9.884;2023-04-23T11:57:35;5.30;;;5.10;;
20040;SDS011;10181;48.072;9.884;2023-04-23T12:00:12;7.47;;;7.17;;
20040;SDS011;10181;48.072;9.884;2023-04-23T12:02:48;26.53;;;25.53;;
20040;SDS011;10181;48.072;9.884;2023-04-23T12:05:25;51.07;;;49.17;;
20040;SDS011;10181;48.072;9.884;2023-04-23T12:08:11;8.93;;;8.63;;
20040;SDS011;10181;48.072;9.884;2023-04-23T12:10:50;5.93;;;5.63;;
20040;SDS011;10181;48.072;9.884;2023-04-23T12:13:23;6.30;;;6.10;;
20040;SDS011;10181;48.072;9.884;2023-04-23T12:15:52;6.17;;;5.97;;
20040;SDS011;10181;48.072;9.884;2023-04-23T12:18:32;5.17;;;4.97;;
20040;SDS011;10181;48.072;9.884;2023-04-23T12:21:09;2.70;;;2.60;;
20040;SDS011;10181;48.072;9.884;2023-04-23T12:23:39;10.97;;;10.47;;
20040;SDS011;10181;48.072;9.884;2023-04-23T12:26:10;5.33;;;5.13;;
20040;SDS011;10181;48.072;9.884;2023-04-23T12:28:58;2.43;;;2.33;;
20040;SDS011;10181;48.072;9.884;2023-04-23T12:31:27;3.13;;;3.03;;
20040;SDS011;10181;48.072;9.884;2023-04-23T12:33:57;7.13;;;6.93;;
20040;SDS011;10181;48.072;9.884;2023-04-23T12:36:27;6.97;;;6.77;;
20040;SDS011;10181;48.072;9.884;2023-04-23T12:41:50;18.97;;;18.37;;
20040;SDS011;10181;48.072;9.884;2023-04-23T12:44:21;3.17;;;3.07;;
20040;SDS011;10181;48.072;9.884;2023-04-23T12:46:57;3.07;;;2.87;;
20040;SDS011;10181;48.072;9.884;2023-04-23T12:49:27;10.87;;;10.47;;
20040;SDS011;10181;48.072;9.884;2023-04-23T12:51:56;8.48;;;8.27;;
20040;SDS011;10181;48.072;9.884;2023-04-23T12:54:26;11.25;;;10.75;;
20040;SDS011;10181;48.072;9.884;2023-04-23T12:56:54;3.85;;;3.75;;
20040;SDS011;10181;48.072;9.884;2023-04-23T12:59:20;7.03;;;6.65;;
20040;SDS011;10181;48.072;9.884;2023-04-23T13:01:45;5.05;;;4.85;;
20040;SDS011;10181;48.072;9.884;2023-04-23T13:04:11;3.72;;;3.63;;
20040;SDS011;10181;48.072;9.884;2023-04-23T13:06:37;8.75;;;8.55;;
20040;SDS011;10181;48.072;9.884;2023-04-23T13:09:03;4.00;;;3.83;;
20040;SDS011;10181;48.072;9.884;2023-04-23T13:11:30;6.07;;;5.88;;
20040;SDS011;10181;48.072;9.884;2023-04-23T13:13:56;6.97;;;6.68;;
20040;SDS011;10181;48.072;9.884;2023-04-23T13:16:22;7.88;;;7.68;;
20040;SDS011;10181;48.072;9.884;2023-04-23T13:18:48;7.15;;;6.95;;
20040;SDS011;10181;48.072;9.884;2023-04-23T13:21:17;8.10;;;7.70;;
20040;SDS011;10181;48.072;9.884;2023-04-23T13:23:43;8.70;;;8.50;;
20040;SDS011;10181;48.072;9.884;2023-04-23T13:26:09;3.73;;;3.63;;
20040;SDS011;10181;48.072;9.884;2023-04-23T13:28:35;2.13;;;2.03;;
20040;SDS011;10181;48.072;9.884;2023-04-23T13:31:01;4.07;;;3.97;;
20040;SDS011;10181;48.072;9.884;2023-04-23T13:33:28;2.50;;;2.40;;
20040;SDS011;10181;48.072;9.884;2023-04-23T13:35:54;2.30;;;2.20;;
20040;SDS011;10181;48.072;9.884;2023-04-23T13:38:21;2.60;;;2.53;;
20040;SDS011;10181;48.072;9.884;2023-04-23T13:40:47;3.40;;;3.30;;
20040;SDS011;10181;48.072;9.884;2023-04-23T13:43:13;5.00;;;4.80;;
20040;SDS011;10181;48.072;9.884;2023-04-23T13:45:38;7.17;;;6.67;;
20040;SDS011;10181;48.072;9.884;2023-04-23T13:48:04;9.17;;;8.87;;
20040;SDS011;10181;48.072;9.884;2023-04-23T13:50:31;6.40;;;6.20;;
20040;SDS011;10181;48.072;9.884;2023-04-23T13:52:57;4.23;;;4.03;;
20040;SDS011;10181;48.072;9.884;2023-04-23T13:55:23;3.88;;;3.58;;
20040;SDS011;10181;48.072;9.884;2023-04-23T13:57:49;3.40;;;3.30;;
20040;SDS011;10181;48.072;9.884;2023-04-23T14:00:15;3.20;;;3.10;;
20040;SDS011;10181;48.072;9.884;2023-04-23T14:02:41;9.95;;;9.55;;
20040;SDS011;10181;48.072;9.884;2023-04-23T14:05:07;3.53;;;3.43;;
20040;SDS011;10181;48.072;9.884;2023-04-23T14:07:33;3.10;;;3.00;;
20040;SDS011;10181;48.072;9.884;2023-04-23T14:09:59;4.93;;;4.82;;
20040;SDS011;10181;48.072;9.884;2023-04-23T14:12:25;2.83;;;2.73;;
20040;SDS011;10181;48.072;9.884;2023-04-23T14:14:52;2.80;;;2.70;;
20040;SDS011;10181;48.072;9.884;2023-04-23T14:17:18;2.93;;;2.83;;
20040;SDS011;10181;48.072;9.884;2023-04-23T14:19:44;3.00;;;2.90;;
20040;SDS011;10181;48.072;9.884;2023-04-23T14:22:10;2.63;;;2.53;;
20040;SDS011;10181;48.072;9.884;2023-04-23T14:24:44;3.33;;;3.13;;
20040;SDS011;10181;48.072;9.884;2023-04-23T14:27:11;3.47;;;3.27;;
20040;SDS011;10181;48.072;9.884;2023-04-23T14:29:40;4.77;;;4.57;;
20040;SDS011;10181;48.072;9.884;2023-04-23T14:32:23;5.53;;;5.33;;
20040;SDS011;10181;48.072;9.884;2023-04-23T14:34:49;5.60;;;5.50;;
20040;SDS011;10181;48.072;9.884;2023-04-23T14:37:15;6.47;;;6.27;;
20040;SDS011;10181;48.072;9.884;2023-04-23T14:39:43;5.83;;;5.57;;
20040;SDS011;10181;48.072;9.884;2023-04-23T14:42:10;6.90;;;6.70;;
20040;SDS011;10181;48.072;9.884;2023-04-23T14:44:36;3.07;;;2.97;;
20040;SDS011;10181;48.072;9.884;2023-04-23T14:47:02;2.83;;;2.73;;
20040;SDS011;10181;48.072;9.884;2023-04-23T14:49:28;3.27;;;3.17;;
20040;SDS011;10181;48.072;9.884;2023-04-23T14:51:53;8.00;;;7.80;;
20040;SDS011;10181;48.072;9.884;2023-04-23T14:54:19;6.60;;;6.40;;
20040;SDS011;10181;48.072;9.884;2023-04-23T14:56:45;5.90;;;5.70;;